Hlavní strana
METAR-TAF:

METAR-TAF

Letiště :

Chattanooga, Tennessee, Spojené státy americké

zeměpisná šířka: 35-02-00N, zeměpisná délka: 085-12-00W, výška: 207 m

Aktuální stav počasí

Zpráva byla vytvořena před 15 minutami, v 10:53 UTC
Bezvětří
Teplota 22°C
Vlhkost vzduchu 88%
Tlak 1022 hPa
Viditelnost: 16.1 km
Skoro jasno ve výšce 5000 ft

METAR: KCHA 241053Z 00000KT 10SM FEW050 22/20 A3017 RMK AO2 SLP205 T02170200 $

Čas: 07:08 (11:08 UTC)

Předpověď počasí

Zpráva byla vytvořena před 5 hodinami a 48 minutami, v 05:20 UTC
Předpověď platná od 24 v 06 UTC do 25 v 06 UTC
Západojihozápadní vítr 5 kt
Viditelnost: 10 km
Skoro jasno ve výšce 5000 ft

TAF: KCHA 240520Z 2406/2506 24005KT P6SM FEW050

Stav a předpovědi počasí z více než 4 000 letišť (zprávy METAR a TAF).

Červené a žluté tečky na mapě představují dostupné meteorologické stanice.

Když kurzor umístíte na tečku, zobrazí se název stanice.

Pak kliknutím zobrazíte stav a předpověď počasí.

Chcete-li změnit mapu, kliknutím na zelené tlačítko se znaménkem +mapu přiblížíte, kliknutím na zelené tlačítko se znaménkem – mapu oddálíte a kliknutím na zelené šipky přejdete na sousední mapy.


METAR-TAF: